sensor_id;sensor_type;location;lat;lon;timestamp;temperature;humidity
6375;DHT22;35400;45.472;-122.822;2023-06-22T00:01:18;23.70;79.10
6375;DHT22;35400;45.472;-122.822;2023-06-22T00:03:45;23.60;79.70
6375;DHT22;35400;45.472;-122.822;2023-06-22T00:06:13;23.70;80.10
6375;DHT22;35400;45.472;-122.822;2023-06-22T00:08:40;23.70;78.80
6375;DHT22;35400;45.472;-122.822;2023-06-22T00:11:07;23.60;79.30
6375;DHT22;35400;45.472;-122.822;2023-06-22T00:13:34;23.60;79.30
6375;DHT22;35400;45.472;-122.822;2023-06-22T00:16:01;23.60;77.10
6375;DHT22;35400;45.472;-122.822;2023-06-22T00:18:30;23.60;77.30
6375;DHT22;35400;45.472;-122.822;2023-06-22T00:20:58;23.60;77.70
6375;DHT22;35400;45.472;-122.822;2023-06-22T00:23:26;23.60;76.50
6375;DHT22;35400;45.472;-122.822;2023-06-22T00:25:53;23.50;75.80
6375;DHT22;35400;45.472;-122.822;2023-06-22T00:28:20;23.50;75.10
6375;DHT22;35400;45.472;-122.822;2023-06-22T00:30:49;23.50;76.30
6375;DHT22;35400;45.472;-122.822;2023-06-22T00:33:16;23.50;76.20
6375;DHT22;35400;45.472;-122.822;2023-06-22T00:35:43;23.60;76.10
6375;DHT22;35400;45.472;-122.822;2023-06-22T00:38:10;23.50;76.60
6375;DHT22;35400;45.472;-122.822;2023-06-22T00:40:37;23.60;75.20
6375;DHT22;35400;45.472;-122.822;2023-06-22T00:43:04;23.60;74.80
6375;DHT22;35400;45.472;-122.822;2023-06-22T00:45:31;23.60;75.40
6375;DHT22;35400;45.472;-122.822;2023-06-22T00:47:58;23.50;75.50
6375;DHT22;35400;45.472;-122.822;2023-06-22T00:50:27;23.50;74.70
6375;DHT22;35400;45.472;-122.822;2023-06-22T00:53:00;23.50;75.20
6375;DHT22;35400;45.472;-122.822;2023-06-22T00:55:27;23.50;74.20
6375;DHT22;35400;45.472;-122.822;2023-06-22T00:57:54;23.50;74.80
6375;DHT22;35400;45.472;-122.822;2023-06-22T01:00:25;23.50;73.20
6375;DHT22;35400;45.472;-122.822;2023-06-22T01:02:53;23.40;73.60
6375;DHT22;35400;45.472;-122.822;2023-06-22T01:05:21;23.50;74.00
6375;DHT22;35400;45.472;-122.822;2023-06-22T01:10:27;23.40;73.70
6375;DHT22;35400;45.472;-122.822;2023-06-22T01:13:22;23.40;73.30
6375;DHT22;35400;45.472;-122.822;2023-06-22T01:15:49;23.40;73.00
6375;DHT22;35400;45.472;-122.822;2023-06-22T01:18:18;23.40;73.60
6375;DHT22;35400;45.472;-122.822;2023-06-22T01:20:47;23.40;74.70
6375;DHT22;35400;45.472;-122.822;2023-06-22T01:28:48;23.40;70.60
6375;DHT22;35400;45.472;-122.822;2023-06-22T01:31:22;23.40;71.70
6375;DHT22;35400;45.472;-122.822;2023-06-22T01:34:02;23.40;70.60
6375;DHT22;35400;45.472;-122.822;2023-06-22T01:36:30;23.30;71.10
6375;DHT22;35400;45.472;-122.822;2023-06-22T01:38:58;23.30;69.80
6375;DHT22;35400;45.472;-122.822;2023-06-22T01:41:26;23.40;70.60
6375;DHT22;35400;45.472;-122.822;2023-06-22T01:43:54;23.30;70.10
6375;DHT22;35400;45.472;-122.822;2023-06-22T01:46:22;23.30;69.50
6375;DHT22;35400;45.472;-122.822;2023-06-22T01:48:51;23.30;69.20
6375;DHT22;35400;45.472;-122.822;2023-06-22T01:51:18;23.30;69.40
6375;DHT22;35400;45.472;-122.822;2023-06-22T01:53:44;23.30;69.50
6375;DHT22;35400;45.472;-122.822;2023-06-22T01:56:17;23.30;68.90
6375;DHT22;35400;45.472;-122.822;2023-06-22T02:02:14;23.30;70.30
6375;DHT22;35400;45.472;-122.822;2023-06-22T02:04:48;23.30;69.80
6375;DHT22;35400;45.472;-122.822;2023-06-22T02:07:17;23.20;70.20
6375;DHT22;35400;45.472;-122.822;2023-06-22T02:09:47;23.20;69.90
6375;DHT22;35400;45.472;-122.822;2023-06-22T02:12:18;23.20;71.30
6375;DHT22;35400;45.472;-122.822;2023-06-22T02:14:49;23.20;68.90
6375;DHT22;35400;45.472;-122.822;2023-06-22T02:17:18;23.10;67.10
6375;DHT22;35400;45.472;-122.822;2023-06-22T02:19:45;23.10;68.60
6375;DHT22;35400;45.472;-122.822;2023-06-22T02:22:12;23.10;69.50
6375;DHT22;35400;45.472;-122.822;2023-06-22T02:24:44;23.00;70.60
6375;DHT22;35400;45.472;-122.822;2023-06-22T02:27:10;23.00;71.70
6375;DHT22;35400;45.472;-122.822;2023-06-22T02:29:37;23.00;72.50
6375;DHT22;35400;45.472;-122.822;2023-06-22T02:32:04;23.00;72.70
6375;DHT22;35400;45.472;-122.822;2023-06-22T02:34:31;22.90;73.20
6375;DHT22;35400;45.472;-122.822;2023-06-22T02:37:00;22.90;74.50
6375;DHT22;35400;45.472;-122.822;2023-06-22T02:39:28;22.90;75.70
6375;DHT22;35400;45.472;-122.822;2023-06-22T02:41:55;22.90;76.80
6375;DHT22;35400;45.472;-122.822;2023-06-22T02:44:22;22.80;77.20
6375;DHT22;35400;45.472;-122.822;2023-06-22T02:46:49;22.80;77.80
6375;DHT22;35400;45.472;-122.822;2023-06-22T02:49:17;22.80;77.30
6375;DHT22;35400;45.472;-122.822;2023-06-22T02:51:47;22.70;77.90
6375;DHT22;35400;45.472;-122.822;2023-06-22T02:54:17;22.70;78.40
6375;DHT22;35400;45.472;-122.822;2023-06-22T02:56:45;22.60;77.10
6375;DHT22;35400;45.472;-122.822;2023-06-22T02:59:12;22.60;77.50
6375;DHT22;35400;45.472;-122.822;2023-06-22T03:01:39;22.60;78.10
6375;DHT22;35400;45.472;-122.822;2023-06-22T03:04:13;22.50;78.10
6375;DHT22;35400;45.472;-122.822;2023-06-22T03:06:41;22.50;78.40
6375;DHT22;35400;45.472;-122.822;2023-06-22T03:09:08;22.40;78.90
6375;DHT22;35400;45.472;-122.822;2023-06-22T03:11:36;22.40;79.40
6375;DHT22;35400;45.472;-122.822;2023-06-22T03:14:03;22.30;79.90
6375;DHT22;35400;45.472;-122.822;2023-06-22T03:16:30;22.30;80.30
6375;DHT22;35400;45.472;-122.822;2023-06-22T03:18:57;22.20;80.40
6375;DHT22;35400;45.472;-122.822;2023-06-22T03:21:29;22.20;80.90
6375;DHT22;35400;45.472;-122.822;2023-06-22T03:23:56;22.10;81.00
6375;DHT22;35400;45.472;-122.822;2023-06-22T03:26:23;22.10;81.50
6375;DHT22;35400;45.472;-122.822;2023-06-22T03:28:53;22.00;81.30
6375;DHT22;35400;45.472;-122.822;2023-06-22T03:31:19;22.00;81.90
6375;DHT22;35400;45.472;-122.822;2023-06-22T03:33:48;21.90;82.10
6375;DHT22;35400;45.472;-122.822;2023-06-22T03:36:19;21.90;82.40
6375;DHT22;35400;45.472;-122.822;2023-06-22T03:38:48;21.80;82.70
6375;DHT22;35400;45.472;-122.822;2023-06-22T03:41:16;21.80;82.70
6375;DHT22;35400;45.472;-122.822;2023-06-22T03:43:43;21.80;83.30
6375;DHT22;35400;45.472;-122.822;2023-06-22T03:46:10;21.70;83.60
6375;DHT22;35400;45.472;-122.822;2023-06-22T03:48:37;21.70;83.80
6375;DHT22;35400;45.472;-122.822;2023-06-22T03:51:04;21.60;84.00
6375;DHT22;35400;45.472;-122.822;2023-06-22T03:53:31;21.50;83.50
6375;DHT22;35400;45.472;-122.822;2023-06-22T03:55:58;21.50;83.80
6375;DHT22;35400;45.472;-122.822;2023-06-22T03:58:25;21.40;83.90
6375;DHT22;35400;45.472;-122.822;2023-06-22T04:00:52;21.40;84.20
6375;DHT22;35400;45.472;-122.822;2023-06-22T04:03:19;21.30;84.50
6375;DHT22;35400;45.472;-122.822;2023-06-22T04:05:47;21.30;84.60
6375;DHT22;35400;45.472;-122.822;2023-06-22T04:08:14;21.30;84.90
6375;DHT22;35400;45.472;-122.822;2023-06-22T04:10:41;21.20;85.20
6375;DHT22;35400;45.472;-122.822;2023-06-22T04:13:09;21.20;85.40
6375;DHT22;35400;45.472;-122.822;2023-06-22T04:15:36;21.10;85.50
6375;DHT22;35400;45.472;-122.822;2023-06-22T04:18:03;21.10;85.70
6375;DHT22;35400;45.472;-122.822;2023-06-22T04:20:31;21.00;85.90
6375;DHT22;35400;45.472;-122.822;2023-06-22T04:22:58;21.00;86.20
6375;DHT22;35400;45.472;-122.822;2023-06-22T04:25:25;20.90;86.30
6375;DHT22;35400;45.472;-122.822;2023-06-22T04:27:52;20.90;86.70
6375;DHT22;35400;45.472;-122.822;2023-06-22T04:30:19;20.80;86.80
6375;DHT22;35400;45.472;-122.822;2023-06-22T04:32:46;20.80;87.10
6375;DHT22;35400;45.472;-122.822;2023-06-22T04:35:25;20.70;87.30
6375;DHT22;35400;45.472;-122.822;2023-06-22T04:37:53;20.70;87.40
6375;DHT22;35400;45.472;-122.822;2023-06-22T04:40:23;20.60;87.50
6375;DHT22;35400;45.472;-122.822;2023-06-22T04:42:50;20.60;87.80
6375;DHT22;35400;45.472;-122.822;2023-06-22T04:45:20;20.50;88.20
6375;DHT22;35400;45.472;-122.822;2023-06-22T04:47:47;20.50;88.60
6375;DHT22;35400;45.472;-122.822;2023-06-22T04:50:15;20.40;88.90
6375;DHT22;35400;45.472;-122.822;2023-06-22T04:52:42;20.40;88.50
6375;DHT22;35400;45.472;-122.822;2023-06-22T04:55:08;20.40;88.90
6375;DHT22;35400;45.472;-122.822;2023-06-22T04:57:35;20.40;89.00
6375;DHT22;35400;45.472;-122.822;2023-06-22T05:00:06;20.30;89.10
6375;DHT22;35400;45.472;-122.822;2023-06-22T05:02:39;20.30;89.40
6375;DHT22;35400;45.472;-122.822;2023-06-22T05:05:07;20.30;89.60
6375;DHT22;35400;45.472;-122.822;2023-06-22T05:07:34;20.20;89.60
6375;DHT22;35400;45.472;-122.822;2023-06-22T05:10:02;20.20;89.70
6375;DHT22;35400;45.472;-122.822;2023-06-22T05:12:31;20.10;90.00
6375;DHT22;35400;45.472;-122.822;2023-06-22T05:14:59;20.10;90.10
6375;DHT22;35400;45.472;-122.822;2023-06-22T05:17:27;20.00;90.20
6375;DHT22;35400;45.472;-122.822;2023-06-22T05:19:54;20.00;90.10
6375;DHT22;35400;45.472;-122.822;2023-06-22T05:22:22;20.00;90.20
6375;DHT22;35400;45.472;-122.822;2023-06-22T05:24:48;19.90;90.20
6375;DHT22;35400;45.472;-122.822;2023-06-22T05:27:15;19.90;90.30
6375;DHT22;35400;45.472;-122.822;2023-06-22T05:29:42;19.90;90.50
6375;DHT22;35400;45.472;-122.822;2023-06-22T05:32:09;19.80;90.60
6375;DHT22;35400;45.472;-122.822;2023-06-22T05:34:36;19.80;90.70
6375;DHT22;35400;45.472;-122.822;2023-06-22T05:37:03;19.70;90.70
6375;DHT22;35400;45.472;-122.822;2023-06-22T05:39:30;19.70;90.70
6375;DHT22;35400;45.472;-122.822;2023-06-22T05:41:57;19.60;90.70
6375;DHT22;35400;45.472;-122.822;2023-06-22T05:44:23;19.60;90.80
6375;DHT22;35400;45.472;-122.822;2023-06-22T05:46:50;19.60;90.80
6375;DHT22;35400;45.472;-122.822;2023-06-22T05:49:17;19.50;91.00
6375;DHT22;35400;45.472;-122.822;2023-06-22T05:51:44;19.40;91.10
6375;DHT22;35400;45.472;-122.822;2023-06-22T05:54:11;19.40;91.00
6375;DHT22;35400;45.472;-122.822;2023-06-22T05:56:40;19.40;91.10
6375;DHT22;35400;45.472;-122.822;2023-06-22T05:59:06;19.30;91.20
6375;DHT22;35400;45.472;-122.822;2023-06-22T06:01:33;19.30;91.20
6375;DHT22;35400;45.472;-122.822;2023-06-22T06:04:03;19.20;91.40
6375;DHT22;35400;45.472;-122.822;2023-06-22T06:06:30;19.10;91.50
6375;DHT22;35400;45.472;-122.822;2023-06-22T06:08:57;19.10;91.80
6375;DHT22;35400;45.472;-122.822;2023-06-22T06:11:25;19.10;91.50
6375;DHT22;35400;45.472;-122.822;2023-06-22T06:13:52;19.00;91.40
6375;DHT22;35400;45.472;-122.822;2023-06-22T06:16:20;19.00;91.60
6375;DHT22;35400;45.472;-122.822;2023-06-22T06:18:46;18.90;91.60
6375;DHT22;35400;45.472;-122.822;2023-06-22T06:21:14;18.90;91.70
6375;DHT22;35400;45.472;-122.822;2023-06-22T06:23:41;18.90;91.80
6375;DHT22;35400;45.472;-122.822;2023-06-22T06:26:09;18.80;91.80
6375;DHT22;35400;45.472;-122.822;2023-06-22T06:28:35;18.80;91.80
6375;DHT22;35400;45.472;-122.822;2023-06-22T06:31:02;18.80;91.90
6375;DHT22;35400;45.472;-122.822;2023-06-22T06:33:33;18.80;92.10
6375;DHT22;35400;45.472;-122.822;2023-06-22T06:36:00;18.70;92.00
6375;DHT22;35400;45.472;-122.822;2023-06-22T06:38:30;18.70;92.00
6375;DHT22;35400;45.472;-122.822;2023-06-22T06:40:58;18.70;92.20
6375;DHT22;35400;45.472;-122.822;2023-06-22T06:43:25;18.70;92.20
6375;DHT22;35400;45.472;-122.822;2023-06-22T06:45:53;18.70;92.40
6375;DHT22;35400;45.472;-122.822;2023-06-22T06:48:19;18.60;92.40
6375;DHT22;35400;45.472;-122.822;2023-06-22T06:50:46;18.60;92.50
6375;DHT22;35400;45.472;-122.822;2023-06-22T06:53:14;18.50;92.50
6375;DHT22;35400;45.472;-122.822;2023-06-22T06:55:40;18.50;92.60
6375;DHT22;35400;45.472;-122.822;2023-06-22T06:58:07;18.50;92.70
6375;DHT22;35400;45.472;-122.822;2023-06-22T07:00:36;18.50;92.70
6375;DHT22;35400;45.472;-122.822;2023-06-22T07:03:03;18.40;92.80
6375;DHT22;35400;45.472;-122.822;2023-06-22T07:05:30;18.40;92.90
6375;DHT22;35400;45.472;-122.822;2023-06-22T07:07:57;18.40;93.00
6375;DHT22;35400;45.472;-122.822;2023-06-22T07:10:23;18.30;92.90
6375;DHT22;35400;45.472;-122.822;2023-06-22T07:12:50;18.40;93.10
6375;DHT22;35400;45.472;-122.822;2023-06-22T07:15:17;18.30;93.20
6375;DHT22;35400;45.472;-122.822;2023-06-22T07:17:44;18.30;93.30
6375;DHT22;35400;45.472;-122.822;2023-06-22T07:20:11;18.30;93.40
6375;DHT22;35400;45.472;-122.822;2023-06-22T07:22:39;18.20;93.40
6375;DHT22;35400;45.472;-122.822;2023-06-22T07:25:06;18.20;93.40
6375;DHT22;35400;45.472;-122.822;2023-06-22T07:27:42;18.20;93.50
6375;DHT22;35400;45.472;-122.822;2023-06-22T07:30:10;18.10;93.80
6375;DHT22;35400;45.472;-122.822;2023-06-22T07:32:37;18.10;94.20
6375;DHT22;35400;45.472;-122.822;2023-06-22T07:35:04;18.00;94.30
6375;DHT22;35400;45.472;-122.822;2023-06-22T07:37:31;17.90;94.80
6375;DHT22;35400;45.472;-122.822;2023-06-22T07:39:59;17.80;94.90
6375;DHT22;35400;45.472;-122.822;2023-06-22T07:42:27;17.80;95.60
6375;DHT22;35400;45.472;-122.822;2023-06-22T07:44:54;17.70;95.60
6375;DHT22;35400;45.472;-122.822;2023-06-22T07:47:21;17.70;95.60
6375;DHT22;35400;45.472;-122.822;2023-06-22T07:49:51;17.60;95.70
6375;DHT22;35400;45.472;-122.822;2023-06-22T07:52:21;17.60;95.90
6375;DHT22;35400;45.472;-122.822;2023-06-22T07:54:47;17.50;95.90
6375;DHT22;35400;45.472;-122.822;2023-06-22T07:57:14;17.50;96.10
6375;DHT22;35400;45.472;-122.822;2023-06-22T07:59:41;17.40;96.20
6375;DHT22;35400;45.472;-122.822;2023-06-22T08:02:08;17.40;96.30
6375;DHT22;35400;45.472;-122.822;2023-06-22T08:04:36;17.30;96.30
6375;DHT22;35400;45.472;-122.822;2023-06-22T08:07:02;17.30;96.40
6375;DHT22;35400;45.472;-122.822;2023-06-22T08:09:31;17.20;96.60
6375;DHT22;35400;45.472;-122.822;2023-06-22T08:11:59;17.20;96.70
6375;DHT22;35400;45.472;-122.822;2023-06-22T08:14:26;17.10;96.90
6375;DHT22;35400;45.472;-122.822;2023-06-22T08:16:53;17.00;97.10
6375;DHT22;35400;45.472;-122.822;2023-06-22T08:19:20;17.00;97.10
6375;DHT22;35400;45.472;-122.822;2023-06-22T08:21:47;17.00;97.40
6375;DHT22;35400;45.472;-122.822;2023-06-22T08:24:14;16.90;97.80
6375;DHT22;35400;45.472;-122.822;2023-06-22T08:26:41;16.90;97.90
6375;DHT22;35400;45.472;-122.822;2023-06-22T08:29:07;16.80;98.20
6375;DHT22;35400;45.472;-122.822;2023-06-22T08:31:35;16.80;98.40
6375;DHT22;35400;45.472;-122.822;2023-06-22T08:34:02;16.70;98.50
6375;DHT22;35400;45.472;-122.822;2023-06-22T08:36:29;16.70;98.70
6375;DHT22;35400;45.472;-122.822;2023-06-22T08:38:59;16.60;99.10
6375;DHT22;35400;45.472;-122.822;2023-06-22T08:41:29;16.60;99.30
6375;DHT22;35400;45.472;-122.822;2023-06-22T08:43:56;16.50;99.40
6375;DHT22;35400;45.472;-122.822;2023-06-22T08:46:23;16.50;99.50
6375;DHT22;35400;45.472;-122.822;2023-06-22T08:48:57;16.40;99.60
6375;DHT22;35400;45.472;-122.822;2023-06-22T08:51:24;16.40;99.90
6375;DHT22;35400;45.472;-122.822;2023-06-22T08:53:51;16.30;99.90
6375;DHT22;35400;45.472;-122.822;2023-06-22T08:56:18;16.20;99.90
6375;DHT22;35400;45.472;-122.822;2023-06-22T08:58:45;16.20;99.90
6375;DHT22;35400;45.472;-122.822;2023-06-22T09:01:12;16.20;99.90
6375;DHT22;35400;45.472;-122.822;2023-06-22T09:03:41;16.10;99.90
6375;DHT22;35400;45.472;-122.822;2023-06-22T09:06:08;16.10;99.90
6375;DHT22;35400;45.472;-122.822;2023-06-22T09:08:40;16.10;99.90
6375;DHT22;35400;45.472;-122.822;2023-06-22T09:11:06;16.00;99.90
6375;DHT22;35400;45.472;-122.822;2023-06-22T09:13:33;16.00;99.90
6375;DHT22;35400;45.472;-122.822;2023-06-22T09:16:01;15.90;99.90
6375;DHT22;35400;45.472;-122.822;2023-06-22T09:18:28;15.90;99.90
6375;DHT22;35400;45.472;-122.822;2023-06-22T09:20:54;15.80;99.90
6375;DHT22;35400;45.472;-122.822;2023-06-22T09:23:21;15.80;99.90
6375;DHT22;35400;45.472;-122.822;2023-06-22T09:25:48;15.70;99.90
6375;DHT22;35400;45.472;-122.822;2023-06-22T09:28:15;15.60;99.90
6375;DHT22;35400;45.472;-122.822;2023-06-22T09:30:45;15.60;99.90
6375;DHT22;35400;45.472;-122.822;2023-06-22T09:33:12;15.50;99.90
6375;DHT22;35400;45.472;-122.822;2023-06-22T09:35:39;15.50;99.90
6375;DHT22;35400;45.472;-122.822;2023-06-22T09:38:06;15.40;99.90
6375;DHT22;35400;45.472;-122.822;2023-06-22T09:40:33;15.40;99.90
6375;DHT22;35400;45.472;-122.822;2023-06-22T09:43:05;15.30;99.90
6375;DHT22;35400;45.472;-122.822;2023-06-22T09:45:32;15.30;99.90
6375;DHT22;35400;45.472;-122.822;2023-06-22T09:47:59;15.30;99.90
6375;DHT22;35400;45.472;-122.822;2023-06-22T09:50:26;15.20;99.90
6375;DHT22;35400;45.472;-122.822;2023-06-22T09:52:53;15.20;99.90
6375;DHT22;35400;45.472;-122.822;2023-06-22T09:55:21;15.10;99.90
6375;DHT22;35400;45.472;-122.822;2023-06-22T09:57:49;15.10;99.90
6375;DHT22;35400;45.472;-122.822;2023-06-22T10:00:17;15.00;99.90
6375;DHT22;35400;45.472;-122.822;2023-06-22T10:02:46;15.00;99.90
6375;DHT22;35400;45.472;-122.822;2023-06-22T10:05:12;15.00;99.90
6375;DHT22;35400;45.472;-122.822;2023-06-22T10:07:40;14.90;99.90
6375;DHT22;35400;45.472;-122.822;2023-06-22T10:10:10;14.90;99.90
6375;DHT22;35400;45.472;-122.822;2023-06-22T10:12:42;14.80;99.90
6375;DHT22;35400;45.472;-122.822;2023-06-22T10:15:10;14.70;99.90
6375;DHT22;35400;45.472;-122.822;2023-06-22T10:17:37;14.70;99.90
6375;DHT22;35400;45.472;-122.822;2023-06-22T10:20:06;14.70;99.90
6375;DHT22;35400;45.472;-122.822;2023-06-22T10:22:44;14.60;99.90
6375;DHT22;35400;45.472;-122.822;2023-06-22T10:25:12;14.60;99.90
6375;DHT22;35400;45.472;-122.822;2023-06-22T10:27:39;14.50;99.90
6375;DHT22;35400;45.472;-122.822;2023-06-22T10:30:10;14.50;99.90
6375;DHT22;35400;45.472;-122.822;2023-06-22T10:32:42;14.40;99.90
6375;DHT22;35400;45.472;-122.822;2023-06-22T10:35:10;14.40;99.90
6375;DHT22;35400;45.472;-122.822;2023-06-22T10:37:37;14.30;99.90
6375;DHT22;35400;45.472;-122.822;2023-06-22T10:40:04;14.30;99.90
6375;DHT22;35400;45.472;-122.822;2023-06-22T10:42:32;14.30;99.90
6375;DHT22;35400;45.472;-122.822;2023-06-22T10:44:58;14.20;99.90
6375;DHT22;35400;45.472;-122.822;2023-06-22T10:47:25;14.20;99.90
6375;DHT22;35400;45.472;-122.822;2023-06-22T10:49:52;14.20;99.90
6375;DHT22;35400;45.472;-122.822;2023-06-22T10:52:19;14.30;99.90
6375;DHT22;35400;45.472;-122.822;2023-06-22T10:54:45;14.20;99.90
6375;DHT22;35400;45.472;-122.822;2023-06-22T10:57:13;14.30;99.90
6375;DHT22;35400;45.472;-122.822;2023-06-22T10:59:40;14.20;99.90
6375;DHT22;35400;45.472;-122.822;2023-06-22T11:02:06;14.20;99.90
6375;DHT22;35400;45.472;-122.822;2023-06-22T11:04:33;14.20;99.90
6375;DHT22;35400;45.472;-122.822;2023-06-22T11:07:00;14.20;99.90
6375;DHT22;35400;45.472;-122.822;2023-06-22T11:09:27;14.20;99.90
6375;DHT22;35400;45.472;-122.822;2023-06-22T11:11:56;14.10;99.90
6375;DHT22;35400;45.472;-122.822;2023-06-22T11:14:25;14.10;99.90
6375;DHT22;35400;45.472;-122.822;2023-06-22T11:16:52;14.10;99.90
6375;DHT22;35400;45.472;-122.822;2023-06-22T11:19:19;14.10;99.90
6375;DHT22;35400;45.472;-122.822;2023-06-22T11:21:46;14.00;99.90
6375;DHT22;35400;45.472;-122.822;2023-06-22T11:24:12;14.00;99.90
6375;DHT22;35400;45.472;-122.822;2023-06-22T11:26:39;14.00;99.90
6375;DHT22;35400;45.472;-122.822;2023-06-22T11:29:06;13.90;99.90
6375;DHT22;35400;45.472;-122.822;2023-06-22T11:31:35;13.90;99.90
6375;DHT22;35400;45.472;-122.822;2023-06-22T11:34:02;13.90;99.90
6375;DHT22;35400;45.472;-122.822;2023-06-22T11:36:29;13.80;99.90
6375;DHT22;35400;45.472;-122.822;2023-06-22T11:38:59;13.80;99.90
6375;DHT22;35400;45.472;-122.822;2023-06-22T11:41:26;13.80;99.90
6375;DHT22;35400;45.472;-122.822;2023-06-22T11:43:53;13.80;99.90
6375;DHT22;35400;45.472;-122.822;2023-06-22T11:46:20;13.70;99.90
6375;DHT22;35400;45.472;-122.822;2023-06-22T11:48:46;13.70;99.90
6375;DHT22;35400;45.472;-122.822;2023-06-22T11:51:13;13.60;99.90
6375;DHT22;35400;45.472;-122.822;2023-06-22T11:53:40;13.60;99.90
6375;DHT22;35400;45.472;-122.822;2023-06-22T11:56:07;13.60;99.90
6375;DHT22;35400;45.472;-122.822;2023-06-22T11:58:33;13.60;99.90
6375;DHT22;35400;45.472;-122.822;2023-06-22T12:01:00;13.50;99.90
6375;DHT22;35400;45.472;-122.822;2023-06-22T12:03:27;13.50;99.90
6375;DHT22;35400;45.472;-122.822;2023-06-22T12:05:55;13.50;99.90
6375;DHT22;35400;45.472;-122.822;2023-06-22T12:08:22;13.50;99.90
6375;DHT22;35400;45.472;-122.822;2023-06-22T12:10:50;13.40;99.90
6375;DHT22;35400;45.472;-122.822;2023-06-22T12:13:17;13.40;99.90
6375;DHT22;35400;45.472;-122.822;2023-06-22T12:15:44;13.40;99.90
6375;DHT22;35400;45.472;-122.822;2023-06-22T12:18:11;13.30;99.90
6375;DHT22;35400;45.472;-122.822;2023-06-22T12:20:40;13.30;99.90
6375;DHT22;35400;45.472;-122.822;2023-06-22T12:23:07;13.30;99.90
6375;DHT22;35400;45.472;-122.822;2023-06-22T12:25:34;13.30;99.90
6375;DHT22;35400;45.472;-122.822;2023-06-22T12:28:01;13.30;99.90
6375;DHT22;35400;45.472;-122.822;2023-06-22T12:30:28;13.20;99.90
6375;DHT22;35400;45.472;-122.822;2023-06-22T12:32:54;13.20;99.90
6375;DHT22;35400;45.472;-122.822;2023-06-22T12:35:21;13.20;99.90
6375;DHT22;35400;45.472;-122.822;2023-06-22T12:37:48;13.30;99.90
6375;DHT22;35400;45.472;-122.822;2023-06-22T12:40:15;13.20;99.90
6375;DHT22;35400;45.472;-122.822;2023-06-22T12:42:41;13.20;99.90
6375;DHT22;35400;45.472;-122.822;2023-06-22T12:45:09;13.20;99.90
6375;DHT22;35400;45.472;-122.822;2023-06-22T12:47:36;13.20;99.90
6375;DHT22;35400;45.472;-122.822;2023-06-22T12:50:03;13.30;99.90
6375;DHT22;35400;45.472;-122.822;2023-06-22T12:52:31;13.30;99.90
6375;DHT22;35400;45.472;-122.822;2023-06-22T12:54:58;13.20;99.90
6375;DHT22;35400;45.472;-122.822;2023-06-22T12:57:25;13.30;99.90
6375;DHT22;35400;45.472;-122.822;2023-06-22T12:59:52;13.20;99.90
6375;DHT22;35400;45.472;-122.822;2023-06-22T13:02:19;13.30;99.90
6375;DHT22;35400;45.472;-122.822;2023-06-22T13:04:46;13.30;99.90
6375;DHT22;35400;45.472;-122.822;2023-06-22T13:07:13;13.30;99.90
6375;DHT22;35400;45.472;-122.822;2023-06-22T13:09:39;13.30;99.90
6375;DHT22;35400;45.472;-122.822;2023-06-22T13:12:07;13.40;99.90
6375;DHT22;35400;45.472;-122.822;2023-06-22T13:14:34;13.40;99.90
6375;DHT22;35400;45.472;-122.822;2023-06-22T13:17:01;13.40;99.90
6375;DHT22;35400;45.472;-122.822;2023-06-22T13:19:27;13.50;99.90
6375;DHT22;35400;45.472;-122.822;2023-06-22T13:21:59;13.60;99.90
6375;DHT22;35400;45.472;-122.822;2023-06-22T13:24:26;13.60;99.90
6375;DHT22;35400;45.472;-122.822;2023-06-22T13:26:53;13.70;99.90
6375;DHT22;35400;45.472;-122.822;2023-06-22T13:29:20;13.70;99.90
6375;DHT22;35400;45.472;-122.822;2023-06-22T13:31:47;13.80;99.90
6375;DHT22;35400;45.472;-122.822;2023-06-22T13:34:13;13.90;99.90
6375;DHT22;35400;45.472;-122.822;2023-06-22T13:36:40;14.00;99.90
6375;DHT22;35400;45.472;-122.822;2023-06-22T13:39:07;14.10;99.90
6375;DHT22;35400;45.472;-122.822;2023-06-22T13:41:34;14.40;99.90
6375;DHT22;35400;45.472;-122.822;2023-06-22T13:44:00;14.80;99.90
6375;DHT22;35400;45.472;-122.822;2023-06-22T13:46:28;15.60;99.90
6375;DHT22;35400;45.472;-122.822;2023-06-22T13:48:55;16.50;99.90
6375;DHT22;35400;45.472;-122.822;2023-06-22T13:51:22;17.10;99.90
6375;DHT22;35400;45.472;-122.822;2023-06-22T13:53:48;17.30;99.90
6375;DHT22;35400;45.472;-122.822;2023-06-22T13:56:15;17.60;99.90
6375;DHT22;35400;45.472;-122.822;2023-06-22T13:58:42;17.70;99.90
6375;DHT22;35400;45.472;-122.822;2023-06-22T14:01:10;18.00;99.90
6375;DHT22;35400;45.472;-122.822;2023-06-22T14:03:37;18.30;99.90
6375;DHT22;35400;45.472;-122.822;2023-06-22T14:06:03;18.50;99.90
6375;DHT22;35400;45.472;-122.822;2023-06-22T14:08:30;18.50;99.90
6375;DHT22;35400;45.472;-122.822;2023-06-22T14:10:57;18.40;99.90
6375;DHT22;35400;45.472;-122.822;2023-06-22T14:13:24;18.40;99.90
6375;DHT22;35400;45.472;-122.822;2023-06-22T14:15:51;18.30;99.90
6375;DHT22;35400;45.472;-122.822;2023-06-22T14:18:18;18.10;99.90
6375;DHT22;35400;45.472;-122.822;2023-06-22T14:20:45;18.00;99.90
6375;DHT22;35400;45.472;-122.822;2023-06-22T14:23:14;17.90;99.90
6375;DHT22;35400;45.472;-122.822;2023-06-22T14:25:40;17.70;99.90
6375;DHT22;35400;45.472;-122.822;2023-06-22T14:28:07;17.60;99.90
6375;DHT22;35400;45.472;-122.822;2023-06-22T14:30:35;17.40;99.90
6375;DHT22;35400;45.472;-122.822;2023-06-22T14:33:01;17.40;99.90
6375;DHT22;35400;45.472;-122.822;2023-06-22T14:35:28;17.30;99.90
6375;DHT22;35400;45.472;-122.822;2023-06-22T14:37:55;17.30;99.90
6375;DHT22;35400;45.472;-122.822;2023-06-22T14:40:22;17.30;99.90
6375;DHT22;35400;45.472;-122.822;2023-06-22T14:42:48;17.30;99.90
6375;DHT22;35400;45.472;-122.822;2023-06-22T14:45:15;17.30;99.90
6375;DHT22;35400;45.472;-122.822;2023-06-22T14:47:42;17.30;99.90
6375;DHT22;35400;45.472;-122.822;2023-06-22T14:50:09;17.30;99.90
6375;DHT22;35400;45.472;-122.822;2023-06-22T14:52:36;17.30;99.90
6375;DHT22;35400;45.472;-122.822;2023-06-22T14:55:03;17.30;99.90
6375;DHT22;35400;45.472;-122.822;2023-06-22T14:57:30;17.30;99.90
6375;DHT22;35400;45.472;-122.822;2023-06-22T14:59:56;17.40;99.90
6375;DHT22;35400;45.472;-122.822;2023-06-22T15:02:23;17.50;99.90
6375;DHT22;35400;45.472;-122.822;2023-06-22T15:04:50;17.60;99.90
6375;DHT22;35400;45.472;-122.822;2023-06-22T15:07:19;17.90;99.90
6375;DHT22;35400;45.472;-122.822;2023-06-22T15:09:46;18.10;99.90
6375;DHT22;35400;45.472;-122.822;2023-06-22T15:12:13;18.40;99.90
6375;DHT22;35400;45.472;-122.822;2023-06-22T15:14:40;18.70;99.90
6375;DHT22;35400;45.472;-122.822;2023-06-22T15:17:08;19.00;99.90